FFL1201 KSJC-KBFI
Flight info
| Callsign | FFL1201 |
|---|---|
| Flight time | 1h 42m |
| Altitude | 43000 |
| Route | LOUPE1 HRNER DCT MAHKE DCT OLM OLM2 |
| Aircraft | LJ35/M-SBDFGHIRWXY/S |
Departure
| Time | 2026-04-23 01:24 |
|---|---|
| Airport | Norman Y. Mineta San Jose International Airport (KSJC) |
Arrival
| Time | 2026-04-23 03:06 |
|---|---|
| Airport | King County International Airport - Boeing Field (KBFI) |
| Time | Latitude | Longitude | Altitude | Speed | Heading |
|---|---|---|---|---|---|
| 2026-04-23 01:12 | 37.36181 | -121.93465 | 55 ft | 0 kts | 229° |
| 2026-04-23 01:17 | 37.36181 | -121.93466 | 55 ft | 0 kts | 229° |
| 2026-04-23 01:17 | 37.36178 | -121.93470 | 55 ft | 2 kts | 223° |
| 2026-04-23 01:18 | 37.36156 | -121.93455 | 55 ft | 7 kts | 114° |
| 2026-04-23 01:18 | 37.36145 | -121.93371 | 55 ft | 13 kts | 81° |
| 2026-04-23 01:18 | 37.36127 | -121.93255 | 54 ft | 11 kts | 120° |
| 2026-04-23 01:18 | 37.36151 | -121.93184 | 56 ft | 12 kts | 48° |
| 2026-04-23 01:19 | 37.36189 | -121.93103 | 54 ft | 12 kts | 93° |
| 2026-04-23 01:19 | 37.36129 | -121.93019 | 55 ft | 15 kts | 139° |
| 2026-04-23 01:19 | 37.36041 | -121.92921 | 56 ft | 20 kts | 138° |
| 2026-04-23 01:19 | 37.35921 | -121.92791 | 52 ft | 26 kts | 139° |
| 2026-04-23 01:20 | 37.35824 | -121.92681 | 53 ft | 9 kts | 138° |
| 2026-04-23 01:20 | 37.35775 | -121.92628 | 55 ft | 8 kts | 139° |
| 2026-04-23 01:20 | 37.35730 | -121.92578 | 55 ft | 11 kts | 139° |
| 2026-04-23 01:20 | 37.35652 | -121.92497 | 54 ft | 18 kts | 140° |
| 2026-04-23 01:21 | 37.35559 | -121.92395 | 56 ft | 11 kts | 134° |
| 2026-04-23 01:21 | 37.35526 | -121.92354 | 56 ft | 6 kts | 130° |
| 2026-04-23 01:21 | 37.35521 | -121.92327 | 53 ft | 3 kts | 87° |
| 2026-04-23 01:21 | 37.35521 | -121.92322 | 56 ft | 0 kts | 84° |
| 2026-04-23 01:23 | 37.35521 | -121.92318 | 56 ft | 2 kts | 83° |
| 2026-04-23 01:23 | 37.35542 | -121.92277 | 57 ft | 10 kts | 49° |
| 2026-04-23 01:24 | 37.35590 | -121.92242 | 53 ft | 4 kts | 321° |
| 2026-04-23 01:24 | 37.35612 | -121.92265 | 57 ft | 22 kts | 321° |
| 2026-04-23 01:24 | 37.35982 | -121.92668 | 61 ft | 125 kts | 319° |
| 2026-04-23 01:24 | 37.36754 | -121.93460 | 1097 ft | 159 kts | 322° |
| 2026-04-23 01:25 | 37.37698 | -121.94417 | 2447 ft | 186 kts | 318° |
| 2026-04-23 01:25 | 37.38863 | -121.95297 | 3964 ft | 210 kts | 342° |
| 2026-04-23 01:25 | 37.40402 | -121.95349 | 5187 ft | 233 kts | 13° |
| 2026-04-23 01:25 | 37.41804 | -121.94401 | 6783 ft | 231 kts | 45° |
| 2026-04-23 01:26 | 37.42345 | -121.92600 | 8478 ft | 217 kts | 95° |
| 2026-04-23 01:26 | 37.41700 | -121.90893 | 9815 ft | 228 kts | 130° |
| 2026-04-23 01:26 | 37.40568 | -121.89316 | 10469 ft | 256 kts | 127° |
| 2026-04-23 01:26 | 37.39504 | -121.87522 | 11587 ft | 255 kts | 124° |
| 2026-04-23 01:27 | 37.38509 | -121.85677 | 12753 ft | 256 kts | 123° |
| 2026-04-23 01:27 | 37.37485 | -121.83795 | 13652 ft | 270 kts | 125° |
| 2026-04-23 01:27 | 37.36296 | -121.81888 | 14399 ft | 285 kts | 137° |
| 2026-04-23 01:27 | 37.34574 | -121.80507 | 14881 ft | 303 kts | 164° |
| 2026-04-23 01:28 | 37.32481 | -121.80196 | 15540 ft | 307 kts | 191° |
| 2026-04-23 01:28 | 37.30464 | -121.80943 | 16405 ft | 299 kts | 214° |
| 2026-04-23 01:28 | 37.28883 | -121.82563 | 17237 ft | 293 kts | 238° |
| 2026-04-23 01:28 | 37.27999 | -121.84846 | 17923 ft | 293 kts | 258° |
| 2026-04-23 01:29 | 37.27881 | -121.87390 | 18544 ft | 297 kts | 281° |
| 2026-04-23 01:29 | 37.28610 | -121.89791 | 19357 ft | 295 kts | 300° |
| 2026-04-23 01:29 | 37.30035 | -121.91618 | 20379 ft | 295 kts | 322° |
| 2026-04-23 01:29 | 37.31955 | -121.92609 | 21424 ft | 304 kts | 338° |
| 2026-04-23 01:30 | 37.34007 | -121.93297 | 22461 ft | 309 kts | 338° |
| 2026-04-23 01:30 | 37.36136 | -121.93938 | 23310 ft | 321 kts | 340° |
| 2026-04-23 01:30 | 37.38420 | -121.94297 | 24183 ft | 336 kts | 346° |
| 2026-04-23 01:30 | 37.40768 | -121.94549 | 25132 ft | 341 kts | 346° |
| 2026-04-23 01:31 | 37.43140 | -121.94824 | 26121 ft | 344 kts | 345° |
| 2026-04-23 01:31 | 37.45532 | -121.95090 | 27149 ft | 347 kts | 345° |
| 2026-04-23 01:31 | 37.47956 | -121.95340 | 28216 ft | 351 kts | 344° |
| 2026-04-23 01:31 | 37.50368 | -121.95572 | 29311 ft | 353 kts | 344° |
| 2026-04-23 01:32 | 37.52858 | -121.95799 | 30443 ft | 355 kts | 343° |
| 2026-04-23 01:32 | 37.55320 | -121.96017 | 31406 ft | 355 kts | 343° |
| 2026-04-23 01:32 | 37.57743 | -121.96227 | 32406 ft | 354 kts | 343° |
| 2026-04-23 01:32 | 37.60196 | -121.96438 | 33368 ft | 352 kts | 342° |
| 2026-04-23 01:33 | 37.62633 | -121.96653 | 34350 ft | 350 kts | 342° |
| 2026-04-23 01:33 | 37.65056 | -121.96856 | 35210 ft | 348 kts | 342° |
| 2026-04-23 01:33 | 37.67469 | -121.97062 | 36054 ft | 347 kts | 342° |
| 2026-04-23 01:33 | 37.69894 | -121.97286 | 36624 ft | 353 kts | 342° |
| 2026-04-23 01:34 | 37.72372 | -121.97512 | 37162 ft | 361 kts | 343° |
| 2026-04-23 01:34 | 37.74895 | -121.97730 | 37715 ft | 366 kts | 343° |
| 2026-04-23 01:34 | 37.77454 | -121.97951 | 38318 ft | 371 kts | 344° |
| 2026-04-23 01:34 | 37.80033 | -121.98173 | 38879 ft | 375 kts | 345° |
| 2026-04-23 01:35 | 37.82646 | -121.98395 | 39343 ft | 378 kts | 345° |
| 2026-04-23 01:35 | 37.85281 | -121.98619 | 39806 ft | 381 kts | 345° |
| 2026-04-23 01:35 | 37.87933 | -121.98845 | 40268 ft | 383 kts | 346° |
| 2026-04-23 01:35 | 37.90604 | -121.99074 | 40739 ft | 386 kts | 346° |
| 2026-04-23 01:36 | 37.93287 | -121.99304 | 41209 ft | 388 kts | 346° |
| 2026-04-23 01:36 | 37.95986 | -121.99536 | 41672 ft | 390 kts | 347° |
| 2026-04-23 01:36 | 37.98698 | -121.99765 | 42156 ft | 392 kts | 347° |
| 2026-04-23 01:36 | 38.01424 | -122.00001 | 42558 ft | 395 kts | 348° |
| 2026-04-23 01:37 | 38.04193 | -122.00247 | 42699 ft | 404 kts | 348° |
| 2026-04-23 01:37 | 38.07024 | -122.00497 | 42908 ft | 411 kts | 348° |
| 2026-04-23 01:37 | 38.09901 | -122.00748 | 43147 ft | 417 kts | 348° |
| 2026-04-23 01:37 | 38.12829 | -122.01004 | 43190 ft | 427 kts | 348° |
| 2026-04-23 01:38 | 38.15823 | -122.01266 | 43203 ft | 438 kts | 349° |
| 2026-04-23 01:38 | 38.18893 | -122.01533 | 43213 ft | 447 kts | 349° |
| 2026-04-23 01:38 | 38.25191 | -122.02079 | 43220 ft | 460 kts | 349° |
| 2026-04-23 01:39 | 38.31601 | -122.02631 | 43235 ft | 458 kts | 349° |
| 2026-04-23 01:39 | 38.37911 | -122.03205 | 43230 ft | 452 kts | 349° |
| 2026-04-23 01:40 | 38.44181 | -122.03828 | 43218 ft | 452 kts | 349° |
| 2026-04-23 01:40 | 38.50464 | -122.04456 | 43220 ft | 453 kts | 349° |
| 2026-04-23 01:41 | 38.56756 | -122.05080 | 43229 ft | 454 kts | 349° |
| 2026-04-23 01:41 | 38.63057 | -122.05700 | 43222 ft | 454 kts | 349° |
| 2026-04-23 01:42 | 38.69315 | -122.06316 | 43218 ft | 454 kts | 349° |
| 2026-04-23 01:42 | 38.75604 | -122.06933 | 43229 ft | 454 kts | 349° |
| 2026-04-23 01:43 | 38.81906 | -122.07556 | 43211 ft | 454 kts | 349° |
| 2026-04-23 01:43 | 38.88206 | -122.08181 | 43224 ft | 454 kts | 349° |
| 2026-04-23 01:44 | 38.94504 | -122.08802 | 43228 ft | 454 kts | 349° |
| 2026-04-23 01:44 | 39.00803 | -122.09426 | 43217 ft | 454 kts | 349° |
| 2026-04-23 01:45 | 39.07101 | -122.10051 | 43218 ft | 454 kts | 349° |
| 2026-04-23 01:45 | 39.13397 | -122.10678 | 43241 ft | 454 kts | 350° |
| 2026-04-23 01:46 | 39.19696 | -122.11305 | 43219 ft | 454 kts | 350° |
| 2026-04-23 01:46 | 39.25989 | -122.11934 | 43218 ft | 454 kts | 350° |
| 2026-04-23 01:47 | 39.32285 | -122.12565 | 43226 ft | 454 kts | 350° |
| 2026-04-23 01:47 | 39.38578 | -122.13196 | 43217 ft | 453 kts | 350° |
| 2026-04-23 01:48 | 39.44869 | -122.13830 | 43216 ft | 453 kts | 350° |
| 2026-04-23 01:48 | 39.51143 | -122.14463 | 43229 ft | 453 kts | 350° |
| 2026-04-23 01:49 | 39.56373 | -122.14989 | 43219 ft | 453 kts | 350° |
| 2026-04-23 01:49 | 39.62662 | -122.15623 | 43219 ft | 453 kts | 350° |
| 2026-04-23 01:50 | 39.68949 | -122.16259 | 43230 ft | 453 kts | 350° |
| 2026-04-23 01:50 | 39.75240 | -122.16897 | 43223 ft | 453 kts | 350° |
| 2026-04-23 01:51 | 39.81528 | -122.17535 | 43224 ft | 453 kts | 350° |
| 2026-04-23 01:51 | 39.87816 | -122.18174 | 43242 ft | 453 kts | 351° |
| 2026-04-23 01:52 | 39.94106 | -122.18813 | 43226 ft | 453 kts | 351° |
| 2026-04-23 01:52 | 40.00397 | -122.19455 | 43224 ft | 453 kts | 351° |
| 2026-04-23 01:53 | 40.06684 | -122.20098 | 43224 ft | 453 kts | 351° |
| 2026-04-23 01:53 | 40.12976 | -122.20743 | 43229 ft | 453 kts | 351° |
| 2026-04-23 01:54 | 40.19264 | -122.21388 | 43229 ft | 453 kts | 351° |
| 2026-04-23 01:54 | 40.25556 | -122.22035 | 43236 ft | 454 kts | 351° |
| 2026-04-23 01:55 | 40.31849 | -122.22683 | 43226 ft | 454 kts | 351° |
| 2026-04-23 01:55 | 40.38143 | -122.23333 | 43208 ft | 454 kts | 351° |
| 2026-04-23 01:56 | 40.44395 | -122.23980 | 43211 ft | 454 kts | 351° |
| 2026-04-23 01:56 | 40.50682 | -122.24631 | 43202 ft | 453 kts | 351° |
| 2026-04-23 01:57 | 40.56969 | -122.25284 | 43191 ft | 453 kts | 351° |
| 2026-04-23 01:57 | 40.63237 | -122.25935 | 43199 ft | 453 kts | 351° |
| 2026-04-23 01:58 | 40.69517 | -122.26589 | 43204 ft | 453 kts | 351° |
| 2026-04-23 01:58 | 40.75794 | -122.27241 | 43219 ft | 453 kts | 351° |
| 2026-04-23 01:59 | 40.82071 | -122.27902 | 43241 ft | 452 kts | 351° |
| 2026-04-23 01:59 | 40.88347 | -122.28560 | 43233 ft | 452 kts | 351° |
| 2026-04-23 02:00 | 40.94623 | -122.29208 | 43242 ft | 452 kts | 351° |
| 2026-04-23 02:00 | 41.00897 | -122.29865 | 43257 ft | 452 kts | 351° |
| 2026-04-23 02:01 | 41.07174 | -122.30532 | 43264 ft | 453 kts | 351° |
| 2026-04-23 02:01 | 41.13456 | -122.31200 | 43257 ft | 453 kts | 351° |
| 2026-04-23 02:02 | 41.19740 | -122.31871 | 43252 ft | 453 kts | 351° |
| 2026-04-23 02:02 | 41.26022 | -122.32533 | 43253 ft | 453 kts | 351° |
| 2026-04-23 02:03 | 41.32300 | -122.33201 | 43244 ft | 453 kts | 351° |
| 2026-04-23 02:03 | 41.38580 | -122.33869 | 43250 ft | 453 kts | 351° |
| 2026-04-23 02:04 | 41.44864 | -122.34539 | 43251 ft | 453 kts | 351° |
| 2026-04-23 02:04 | 41.51146 | -122.35210 | 43230 ft | 453 kts | 351° |
| 2026-04-23 02:05 | 41.57430 | -122.35883 | 43216 ft | 453 kts | 352° |
| 2026-04-23 02:05 | 41.63670 | -122.36551 | 43207 ft | 453 kts | 352° |
| 2026-04-23 02:06 | 41.69947 | -122.37226 | 43191 ft | 452 kts | 352° |
| 2026-04-23 02:06 | 41.76223 | -122.37902 | 43198 ft | 453 kts | 352° |
| 2026-04-23 02:07 | 41.82498 | -122.38579 | 43197 ft | 452 kts | 352° |
| 2026-04-23 02:07 | 41.88771 | -122.39256 | 43196 ft | 452 kts | 352° |
| 2026-04-23 02:08 | 41.95042 | -122.39936 | 43202 ft | 452 kts | 352° |
| 2026-04-23 02:08 | 42.01311 | -122.40617 | 43218 ft | 452 kts | 352° |
| 2026-04-23 02:09 | 42.07579 | -122.41298 | 43218 ft | 452 kts | 352° |
| 2026-04-23 02:09 | 42.13846 | -122.41981 | 43227 ft | 452 kts | 352° |
| 2026-04-23 02:10 | 42.20111 | -122.42664 | 43216 ft | 452 kts | 352° |
| 2026-04-23 02:10 | 42.26376 | -122.43349 | 43224 ft | 452 kts | 352° |
| 2026-04-23 02:11 | 42.32646 | -122.44037 | 43230 ft | 452 kts | 352° |
| 2026-04-23 02:11 | 42.38917 | -122.44726 | 43236 ft | 452 kts | 352° |
| 2026-04-23 02:12 | 42.45187 | -122.45416 | 43237 ft | 452 kts | 352° |
| 2026-04-23 02:12 | 42.51459 | -122.46106 | 43239 ft | 452 kts | 352° |
| 2026-04-23 02:13 | 42.57724 | -122.46796 | 43241 ft | 452 kts | 352° |
| 2026-04-23 02:13 | 42.63986 | -122.47489 | 43239 ft | 451 kts | 352° |
| 2026-04-23 02:14 | 42.70241 | -122.48183 | 43243 ft | 451 kts | 352° |
| 2026-04-23 02:14 | 42.76502 | -122.48879 | 43249 ft | 451 kts | 352° |
| 2026-04-23 02:15 | 42.85894 | -122.49928 | 43258 ft | 452 kts | 352° |
| 2026-04-23 02:16 | 42.92114 | -122.50624 | 43244 ft | 452 kts | 352° |
| 2026-04-23 02:16 | 42.98376 | -122.51328 | 43256 ft | 451 kts | 352° |
| 2026-04-23 02:17 | 43.04645 | -122.52032 | 43259 ft | 452 kts | 352° |
| 2026-04-23 02:17 | 43.10910 | -122.52733 | 43263 ft | 452 kts | 352° |
| 2026-04-23 02:18 | 43.17179 | -122.53439 | 43268 ft | 452 kts | 352° |
| 2026-04-23 02:18 | 43.23448 | -122.54145 | 43260 ft | 452 kts | 352° |
| 2026-04-23 02:19 | 43.29715 | -122.54856 | 43261 ft | 452 kts | 352° |
| 2026-04-23 02:19 | 43.35980 | -122.55566 | 43254 ft | 452 kts | 352° |
| 2026-04-23 02:20 | 43.42246 | -122.56278 | 43252 ft | 452 kts | 352° |
| 2026-04-23 02:20 | 43.48513 | -122.56993 | 43260 ft | 452 kts | 352° |
| 2026-04-23 02:21 | 43.54780 | -122.57709 | 43275 ft | 452 kts | 352° |
| 2026-04-23 02:21 | 43.61052 | -122.58427 | 43254 ft | 452 kts | 352° |
| 2026-04-23 02:22 | 43.67316 | -122.59143 | 43251 ft | 452 kts | 352° |
| 2026-04-23 02:22 | 43.73584 | -122.59851 | 43257 ft | 452 kts | 352° |
| 2026-04-23 02:23 | 43.79851 | -122.60583 | 43251 ft | 452 kts | 352° |
| 2026-04-23 02:23 | 43.86121 | -122.61307 | 43258 ft | 452 kts | 353° |
| 2026-04-23 02:24 | 43.92389 | -122.62031 | 43252 ft | 452 kts | 353° |
| 2026-04-23 02:24 | 43.98660 | -122.62756 | 43254 ft | 452 kts | 353° |
| 2026-04-23 02:25 | 44.04927 | -122.63483 | 43253 ft | 452 kts | 353° |
| 2026-04-23 02:25 | 44.11188 | -122.64208 | 43252 ft | 452 kts | 353° |
| 2026-04-23 02:26 | 44.17462 | -122.64938 | 43248 ft | 452 kts | 353° |
| 2026-04-23 02:26 | 44.23733 | -122.65671 | 43246 ft | 452 kts | 353° |
| 2026-04-23 02:27 | 44.30003 | -122.66406 | 43249 ft | 452 kts | 353° |
| 2026-04-23 02:27 | 44.36273 | -122.67140 | 43240 ft | 452 kts | 353° |
| 2026-04-23 02:28 | 44.42531 | -122.67868 | 43238 ft | 452 kts | 353° |
| 2026-04-23 02:28 | 44.48801 | -122.68608 | 43234 ft | 452 kts | 353° |
| 2026-04-23 02:29 | 44.55075 | -122.69351 | 43231 ft | 452 kts | 353° |
| 2026-04-23 02:29 | 44.61349 | -122.70094 | 43231 ft | 452 kts | 353° |
| 2026-04-23 02:30 | 44.67624 | -122.70838 | 43234 ft | 452 kts | 353° |
| 2026-04-23 02:30 | 44.73854 | -122.71578 | 43219 ft | 453 kts | 353° |
| 2026-04-23 02:31 | 44.80128 | -122.72325 | 43213 ft | 452 kts | 353° |
| 2026-04-23 02:31 | 44.86405 | -122.73073 | 43212 ft | 452 kts | 353° |
| 2026-04-23 02:32 | 44.92679 | -122.73824 | 43210 ft | 452 kts | 353° |
| 2026-04-23 02:32 | 44.98951 | -122.74575 | 43203 ft | 452 kts | 353° |
| 2026-04-23 02:33 | 45.05227 | -122.75329 | 43215 ft | 452 kts | 353° |
| 2026-04-23 02:33 | 45.11503 | -122.76084 | 43216 ft | 453 kts | 353° |
| 2026-04-23 02:34 | 45.17778 | -122.76841 | 43220 ft | 453 kts | 353° |
| 2026-04-23 02:34 | 45.24053 | -122.77599 | 43217 ft | 452 kts | 353° |
| 2026-04-23 02:35 | 45.30327 | -122.78360 | 43219 ft | 452 kts | 353° |
| 2026-04-23 02:35 | 45.36601 | -122.79121 | 43217 ft | 453 kts | 353° |
| 2026-04-23 02:36 | 45.41814 | -122.79755 | 43211 ft | 453 kts | 353° |
| 2026-04-23 02:36 | 45.48091 | -122.80520 | 43201 ft | 453 kts | 353° |
| 2026-04-23 02:37 | 45.54368 | -122.81288 | 43193 ft | 453 kts | 353° |
| 2026-04-23 02:37 | 45.60636 | -122.82055 | 43195 ft | 453 kts | 353° |
| 2026-04-23 02:38 | 45.66907 | -122.82825 | 43187 ft | 453 kts | 353° |
| 2026-04-23 02:38 | 45.73181 | -122.83597 | 43185 ft | 451 kts | 353° |
| 2026-04-23 02:38 | 45.76282 | -122.83981 | 42955 ft | 447 kts | 353° |
| 2026-04-23 02:39 | 45.79390 | -122.84319 | 42412 ft | 450 kts | 354° |
| 2026-04-23 02:39 | 45.82534 | -122.84505 | 41783 ft | 453 kts | 356° |
| 2026-04-23 02:39 | 45.85689 | -122.84629 | 41170 ft | 453 kts | 356° |
| 2026-04-23 02:39 | 45.88838 | -122.84742 | 40574 ft | 452 kts | 356° |
| 2026-04-23 02:40 | 45.91979 | -122.84863 | 39998 ft | 451 kts | 356° |
| 2026-04-23 02:40 | 45.95110 | -122.84994 | 39441 ft | 450 kts | 356° |
| 2026-04-23 02:40 | 45.98235 | -122.85137 | 38855 ft | 449 kts | 356° |
| 2026-04-23 02:40 | 46.01359 | -122.85286 | 38125 ft | 449 kts | 355° |
| 2026-04-23 02:41 | 46.04476 | -122.85438 | 37417 ft | 448 kts | 355° |
| 2026-04-23 02:41 | 46.07545 | -122.85591 | 36738 ft | 447 kts | 355° |
| 2026-04-23 02:41 | 46.10685 | -122.85749 | 36070 ft | 445 kts | 355° |
| 2026-04-23 02:41 | 46.13735 | -122.85903 | 35428 ft | 444 kts | 354° |
| 2026-04-23 02:42 | 46.16820 | -122.86059 | 34806 ft | 443 kts | 354° |
| 2026-04-23 02:42 | 46.19892 | -122.86216 | 34182 ft | 441 kts | 354° |
| 2026-04-23 02:42 | 46.22957 | -122.86372 | 33474 ft | 440 kts | 354° |
| 2026-04-23 02:42 | 46.26017 | -122.86526 | 32777 ft | 439 kts | 354° |
| 2026-04-23 02:43 | 46.29063 | -122.86682 | 32097 ft | 437 kts | 354° |
| 2026-04-23 02:43 | 46.32101 | -122.86840 | 31428 ft | 436 kts | 354° |
| 2026-04-23 02:43 | 46.35132 | -122.86998 | 30771 ft | 436 kts | 354° |
| 2026-04-23 02:43 | 46.38155 | -122.87154 | 30110 ft | 432 kts | 354° |
| 2026-04-23 02:44 | 46.41136 | -122.87309 | 29368 ft | 425 kts | 354° |
| 2026-04-23 02:44 | 46.44066 | -122.87458 | 28647 ft | 417 kts | 354° |
| 2026-04-23 02:44 | 46.46937 | -122.87601 | 27939 ft | 411 kts | 354° |
| 2026-04-23 02:44 | 46.49778 | -122.87744 | 27236 ft | 405 kts | 355° |
| 2026-04-23 02:45 | 46.52576 | -122.87877 | 26561 ft | 400 kts | 355° |
| 2026-04-23 02:45 | 46.55340 | -122.88018 | 25902 ft | 396 kts | 356° |
| 2026-04-23 02:45 | 46.58082 | -122.88163 | 25260 ft | 392 kts | 356° |
| 2026-04-23 02:45 | 46.60798 | -122.88307 | 24633 ft | 389 kts | 356° |
| 2026-04-23 02:46 | 46.63491 | -122.88450 | 24017 ft | 386 kts | 358° |
| 2026-04-23 02:46 | 46.66159 | -122.88584 | 23345 ft | 382 kts | 358° |
| 2026-04-23 02:46 | 46.68809 | -122.88720 | 22643 ft | 380 kts | 358° |
| 2026-04-23 02:46 | 46.71421 | -122.88860 | 22216 ft | 372 kts | 357° |
| 2026-04-23 02:47 | 46.73981 | -122.88997 | 21790 ft | 365 kts | 357° |
| 2026-04-23 02:47 | 46.76502 | -122.89127 | 21373 ft | 360 kts | 357° |
| 2026-04-23 02:47 | 46.78958 | -122.89253 | 20967 ft | 356 kts | 357° |
| 2026-04-23 02:47 | 46.81420 | -122.89380 | 20561 ft | 352 kts | 357° |
| 2026-04-23 02:48 | 46.83893 | -122.89507 | 20142 ft | 349 kts | 357° |
| 2026-04-23 02:48 | 46.86278 | -122.89631 | 19754 ft | 347 kts | 357° |
| 2026-04-23 02:48 | 46.88713 | -122.89758 | 19358 ft | 344 kts | 357° |
| 2026-04-23 02:48 | 46.91099 | -122.89882 | 18975 ft | 342 kts | 357° |
| 2026-04-23 02:49 | 46.93440 | -122.89983 | 18596 ft | 339 kts | 359° |
| 2026-04-23 02:49 | 46.95718 | -122.89648 | 18184 ft | 320 kts | 9° |
| 2026-04-23 02:49 | 46.97796 | -122.88701 | 17745 ft | 307 kts | 20° |
| 2026-04-23 02:49 | 46.99624 | -122.87200 | 17328 ft | 298 kts | 32° |
| 2026-04-23 02:50 | 47.01185 | -122.85263 | 16898 ft | 290 kts | 38° |
| 2026-04-23 02:50 | 47.02657 | -122.83299 | 16474 ft | 283 kts | 38° |
| 2026-04-23 02:50 | 47.04107 | -122.81397 | 16059 ft | 277 kts | 37° |
| 2026-04-23 02:50 | 47.05536 | -122.79546 | 15639 ft | 272 kts | 37° |
| 2026-04-23 02:51 | 47.06948 | -122.77733 | 15238 ft | 268 kts | 37° |
| 2026-04-23 02:51 | 47.08348 | -122.75940 | 14841 ft | 265 kts | 36° |
| 2026-04-23 02:51 | 47.09734 | -122.74169 | 14457 ft | 263 kts | 36° |
| 2026-04-23 02:51 | 47.11108 | -122.72413 | 14134 ft | 260 kts | 36° |
| 2026-04-23 02:52 | 47.12454 | -122.70694 | 13888 ft | 255 kts | 36° |
| 2026-04-23 02:52 | 47.13790 | -122.68979 | 13622 ft | 255 kts | 36° |
| 2026-04-23 02:52 | 47.15130 | -122.67260 | 13361 ft | 256 kts | 36° |
| 2026-04-23 02:52 | 47.16473 | -122.65537 | 13101 ft | 257 kts | 36° |
| 2026-04-23 02:53 | 47.17818 | -122.63811 | 12857 ft | 257 kts | 36° |
| 2026-04-23 02:53 | 47.19164 | -122.62083 | 12613 ft | 257 kts | 36° |
| 2026-04-23 02:53 | 47.20478 | -122.60373 | 12588 ft | 248 kts | 36° |
| 2026-04-23 02:53 | 47.21809 | -122.58850 | 12572 ft | 237 kts | 27° |
| 2026-04-23 02:54 | 47.23308 | -122.57871 | 12330 ft | 236 kts | 12° |
| 2026-04-23 02:54 | 47.24922 | -122.57474 | 12101 ft | 236 kts | 3° |
| 2026-04-23 02:54 | 47.26564 | -122.57277 | 11879 ft | 238 kts | 2° |
| 2026-04-23 02:54 | 47.28228 | -122.57081 | 11677 ft | 241 kts | 2° |
| 2026-04-23 02:55 | 47.29908 | -122.56855 | 11488 ft | 243 kts | 2° |
| 2026-04-23 02:55 | 47.31613 | -122.56610 | 11156 ft | 250 kts | 3° |
| 2026-04-23 02:55 | 47.33366 | -122.56342 | 10794 ft | 256 kts | 3° |
| 2026-04-23 02:55 | 47.35153 | -122.56061 | 10442 ft | 260 kts | 4° |
| 2026-04-23 02:56 | 47.36967 | -122.55773 | 10036 ft | 265 kts | 3° |
| 2026-04-23 02:56 | 47.38833 | -122.55479 | 9355 ft | 272 kts | 4° |
| 2026-04-23 02:56 | 47.40718 | -122.55181 | 8692 ft | 273 kts | 4° |
| 2026-04-23 02:56 | 47.42602 | -122.54883 | 8199 ft | 268 kts | 4° |
| 2026-04-23 02:57 | 47.44391 | -122.54603 | 8091 ft | 251 kts | 5° |
| 2026-04-23 02:57 | 47.46087 | -122.54426 | 8023 ft | 237 kts | 358° |
| 2026-04-23 02:57 | 47.47676 | -122.54721 | 7996 ft | 224 kts | 348° |
| 2026-04-23 02:57 | 47.49158 | -122.55137 | 7948 ft | 217 kts | 348° |
| 2026-04-23 02:58 | 47.50654 | -122.55561 | 7865 ft | 212 kts | 346° |
| 2026-04-23 02:58 | 47.52065 | -122.55996 | 7870 ft | 203 kts | 348° |
| 2026-04-23 02:58 | 47.53420 | -122.56312 | 7875 ft | 197 kts | 350° |
| 2026-04-23 02:58 | 47.54753 | -122.56654 | 7874 ft | 192 kts | 348° |
| 2026-04-23 02:59 | 47.56058 | -122.57033 | 7775 ft | 194 kts | 347° |
| 2026-04-23 02:59 | 47.57419 | -122.57460 | 7442 ft | 206 kts | 348° |
| 2026-04-23 02:59 | 47.58860 | -122.57866 | 7110 ft | 214 kts | 348° |
| 2026-04-23 02:59 | 47.60344 | -122.58270 | 6592 ft | 220 kts | 349° |
| 2026-04-23 03:00 | 47.61869 | -122.58664 | 5971 ft | 224 kts | 352° |
| 2026-04-23 03:00 | 47.63430 | -122.58548 | 5332 ft | 229 kts | 14° |
| 2026-04-23 03:00 | 47.64852 | -122.57496 | 4713 ft | 229 kts | 28° |
| 2026-04-23 03:00 | 47.66259 | -122.56415 | 4101 ft | 228 kts | 26° |
| 2026-04-23 03:01 | 47.67487 | -122.54918 | 3452 ft | 232 kts | 56° |
| 2026-04-23 03:01 | 47.68035 | -122.52700 | 2832 ft | 231 kts | 88° |
| 2026-04-23 03:01 | 47.67911 | -122.50411 | 2568 ft | 215 kts | 103° |
| 2026-04-23 03:01 | 47.67686 | -122.48255 | 2270 ft | 208 kts | 105° |
| 2026-04-23 03:02 | 47.67230 | -122.46346 | 2175 ft | 187 kts | 126° |
| 2026-04-23 03:02 | 47.66388 | -122.45014 | 2065 ft | 173 kts | 147° |
| 2026-04-23 03:02 | 47.65516 | -122.43761 | 1960 ft | 177 kts | 139° |
| 2026-04-23 03:02 | 47.64698 | -122.42395 | 1882 ft | 177 kts | 139° |
| 2026-04-23 03:03 | 47.63822 | -122.41100 | 1790 ft | 179 kts | 142° |
| 2026-04-23 03:03 | 47.62915 | -122.39805 | 1679 ft | 182 kts | 143° |
| 2026-04-23 03:03 | 47.62004 | -122.38510 | 1653 ft | 179 kts | 142° |
| 2026-04-23 03:03 | 47.61131 | -122.37267 | 1645 ft | 168 kts | 145° |
| 2026-04-23 03:04 | 47.60191 | -122.36344 | 1470 ft | 154 kts | 158° |
| 2026-04-23 03:04 | 47.59317 | -122.35629 | 1260 ft | 126 kts | 154° |
| 2026-04-23 03:04 | 47.58645 | -122.34999 | 1100 ft | 111 kts | 157° |
| 2026-04-23 03:04 | 47.57964 | -122.34442 | 952 ft | 114 kts | 157° |
| 2026-04-23 03:05 | 47.57256 | -122.33860 | 785 ft | 118 kts | 157° |
| 2026-04-23 03:05 | 47.56554 | -122.33244 | 641 ft | 116 kts | 154° |
| 2026-04-23 03:05 | 47.55846 | -122.32657 | 483 ft | 116 kts | 156° |
| 2026-04-23 03:05 | 47.55150 | -122.32076 | 313 ft | 115 kts | 152° |
| 2026-04-23 03:06 | 47.54474 | -122.31470 | 168 ft | 112 kts | 153° |
| 2026-04-23 03:06 | 47.53795 | -122.30918 | 27 ft | 107 kts | 149° |
| 2026-04-23 03:06 | 47.53266 | -122.30473 | 19 ft | 59 kts | 150° |
| 2026-04-23 03:06 | 47.53030 | -122.30272 | 19 ft | 33 kts | 150° |
| 2026-04-23 03:07 | 47.52829 | -122.30102 | 17 ft | 32 kts | 150° |
| 2026-04-23 03:07 | 47.52719 | -122.29984 | 17 ft | 14 kts | 111° |
| 2026-04-23 03:07 | 47.52765 | -122.29858 | 20 ft | 16 kts | 20° |
| 2026-04-23 03:07 | 47.52860 | -122.29833 | 22 ft | 15 kts | 349° |
| 2026-04-23 03:08 | 47.52945 | -122.29901 | 22 ft | 16 kts | 330° |
| 2026-04-23 03:08 | 47.53058 | -122.29995 | 23 ft | 19 kts | 329° |
| 2026-04-23 03:08 | 47.53171 | -122.30090 | 22 ft | 21 kts | 332° |
| 2026-04-23 03:08 | 47.53301 | -122.30201 | 24 ft | 21 kts | 329° |
| 2026-04-23 03:09 | 47.53431 | -122.30308 | 22 ft | 24 kts | 330° |
| 2026-04-23 03:09 | 47.53552 | -122.30412 | 24 ft | 13 kts | 327° |
| 2026-04-23 03:09 | 47.53643 | -122.30514 | 22 ft | 17 kts | 322° |
| 2026-04-23 03:09 | 47.53713 | -122.30561 | 22 ft | 6 kts | 32° |
| 2026-04-23 03:10 | 47.53746 | -122.30503 | 23 ft | 5 kts | 40° |
| 2026-04-23 03:10 | 47.53768 | -122.30517 | 24 ft | 2 kts | 306° |
| 2026-04-23 03:10 | 47.53769 | -122.30518 | 22 ft | 0 kts | 307° |